This is the latest recevied weather packets stored in our database for station/object KM4LTG. If no packets are shown the sender has not sent any weather packets the latest 10 day(s).
| Time | Temp. | Humidity | Pressure | Rain* | Wind** | Luminosity | Snow |
|---|---|---|---|---|---|---|---|
| 1777940460 | 25° C | 57% | 1015.3 hPa | 0 mm | - | - | - |
| 1777939660 | 25° C | 56% | 1015.2 hPa | 0 mm | - | - | - |
| 1777937765 | 25.56° C | 55% | 1014.6 hPa | 0 mm | - | - | - |
| 1777936640 | 26.67° C | 54% | 1014.4 hPa | 0 mm | - | - | - |
| 1777935250 | 27.78° C | 51% | 1014.4 hPa | 0 mm | - | - | - |
| 1777934190 | 27.78° C | 51% | 1014.5 hPa | 0 mm | - | - | - |
| 1777933930 | 28.33° C | 50% | 1014.3 hPa | 0 mm | - | - | - |
| 1777933680 | 29.44° C | 48% | 1014.5 hPa | 0 mm | - | - | - |
| 1777933190 | 28.33° C | 48% | 1014.5 hPa | 0 mm | - | - | - |
| 1777932385 | 28.33° C | 46% | 1014.6 hPa | 0 mm | - | - | - |
| 1777932130 | 28.89° C | 45% | 1014.5 hPa | 0 mm | - | - | - |
| 1777931838 | 28.89° C | 46% | 1014.5 hPa | 0 mm | - | - | - |
| 1777931570 | 28.89° C | 46% | 1014.6 hPa | 0 mm | - | - | - |
| 1777931307 | 28.33° C | 46% | 1014.6 hPa | 0 mm | - | - | - |
| 1777931020 | 28.33° C | 46% | 1014.5 hPa | 0 mm | - | - | - |
| 1777929670 | 28.89° C | 44% | 1014.7 hPa | 0 mm | - | - | - |
| 1777929414 | 28.89° C | 44% | 1014.5 hPa | 0 mm | - | - | - |
| 1777928860 | 28.89° C | 46% | 1014.7 hPa | 0 mm | - | - | - |
| 1777928045 | 28.89° C | 45% | 1014.7 hPa | 0 mm | - | - | - |
| 1777927005 | 28.33° C | 44% | 1014.7 hPa | 0 mm | - | - | - |
| 1777926720 | 28.33° C | 44% | 1014.7 hPa | 0 mm | - | - | - |
| 1777926470 | 28.89° C | 44% | 1014.8 hPa | 0 mm | - | - | - |
| 1777925355 | 28.89° C | 45% | 1015 hPa | 0 mm | - | - | - |
| 1777925100 | 28.89° C | 45% | 1015 hPa | 0 mm | - | - | - |
| 1777924600 | 28.89° C | 44% | 1015.1 hPa | 0 mm | - | - | - |
* Rain latest hour (hover to see other rain measurements)
** Current wind speed in m/s (hover to see current wind gust speed)